sensor_id;sensor_type;location;lat;lon;timestamp;P1;durP1;ratioP1;P2;durP2;ratioP2
2810;SDS011;1413;52.440;13.506;2022-11-20T00:00:17;14.00;;;6.47;;
2810;SDS011;1413;52.440;13.506;2022-11-20T00:02:45;19.15;;;8.48;;
2810;SDS011;1413;52.440;13.506;2022-11-20T00:05:13;12.70;;;6.45;;
2810;SDS011;1413;52.440;13.506;2022-11-20T00:07:41;16.05;;;7.03;;
2810;SDS011;1413;52.440;13.506;2022-11-20T00:10:08;14.05;;;7.18;;
2810;SDS011;1413;52.440;13.506;2022-11-20T00:12:36;15.68;;;7.13;;
2810;SDS011;1413;52.440;13.506;2022-11-20T00:15:03;17.42;;;7.30;;
2810;SDS011;1413;52.440;13.506;2022-11-20T00:17:31;15.18;;;6.40;;
2810;SDS011;1413;52.440;13.506;2022-11-20T00:20:00;14.35;;;7.13;;
2810;SDS011;1413;52.440;13.506;2022-11-20T00:22:27;14.10;;;6.18;;
2810;SDS011;1413;52.440;13.506;2022-11-20T00:24:55;16.92;;;7.65;;
2810;SDS011;1413;52.440;13.506;2022-11-20T00:27:23;15.50;;;7.38;;
2810;SDS011;1413;52.440;13.506;2022-11-20T00:29:51;15.02;;;7.05;;
2810;SDS011;1413;52.440;13.506;2022-11-20T00:32:18;16.95;;;7.20;;
2810;SDS011;1413;52.440;13.506;2022-11-20T00:34:45;14.68;;;7.20;;
2810;SDS011;1413;52.440;13.506;2022-11-20T00:37:14;14.88;;;6.70;;
2810;SDS011;1413;52.440;13.506;2022-11-20T00:39:42;14.63;;;7.10;;
2810;SDS011;1413;52.440;13.506;2022-11-20T00:42:09;16.42;;;6.88;;
2810;SDS011;1413;52.440;13.506;2022-11-20T00:44:37;17.58;;;7.75;;
2810;SDS011;1413;52.440;13.506;2022-11-20T00:47:04;15.55;;;7.43;;
2810;SDS011;1413;52.440;13.506;2022-11-20T00:49:32;19.40;;;8.25;;
2810;SDS011;1413;52.440;13.506;2022-11-20T00:51:59;15.25;;;7.35;;
2810;SDS011;1413;52.440;13.506;2022-11-20T00:54:28;15.82;;;7.38;;
2810;SDS011;1413;52.440;13.506;2022-11-20T00:56:56;17.35;;;7.57;;
2810;SDS011;1413;52.440;13.506;2022-11-20T00:59:23;17.50;;;7.45;;
2810;SDS011;1413;52.440;13.506;2022-11-20T01:01:51;16.48;;;7.65;;
2810;SDS011;1413;52.440;13.506;2022-11-20T01:04:18;15.75;;;6.55;;
2810;SDS011;1413;52.440;13.506;2022-11-20T01:06:46;15.10;;;7.38;;
2810;SDS011;1413;52.440;13.506;2022-11-20T01:09:13;17.40;;;7.80;;
2810;SDS011;1413;52.440;13.506;2022-11-20T01:11:43;14.77;;;6.28;;
2810;SDS011;1413;52.440;13.506;2022-11-20T01:14:11;17.92;;;7.40;;
2810;SDS011;1413;52.440;13.506;2022-11-20T01:16:40;18.33;;;7.07;;
2810;SDS011;1413;52.440;13.506;2022-11-20T01:19:09;13.70;;;6.68;;
2810;SDS011;1413;52.440;13.506;2022-11-20T01:21:43;15.23;;;6.80;;
2810;SDS011;1413;52.440;13.506;2022-11-20T01:24:11;15.18;;;6.95;;
2810;SDS011;1413;52.440;13.506;2022-11-20T01:26:39;22.10;;;7.75;;
2810;SDS011;1413;52.440;13.506;2022-11-20T01:29:09;14.63;;;7.00;;
2810;SDS011;1413;52.440;13.506;2022-11-20T01:31:38;18.10;;;7.13;;
2810;SDS011;1413;52.440;13.506;2022-11-20T01:34:06;17.13;;;8.35;;
2810;SDS011;1413;52.440;13.506;2022-11-20T01:36:34;16.88;;;8.20;;
2810;SDS011;1413;52.440;13.506;2022-11-20T01:39:03;15.90;;;7.50;;
2810;SDS011;1413;52.440;13.506;2022-11-20T01:41:31;15.07;;;7.20;;
2810;SDS011;1413;52.440;13.506;2022-11-20T01:44:19;19.45;;;7.55;;
2810;SDS011;1413;52.440;13.506;2022-11-20T01:46:49;16.00;;;7.82;;
2810;SDS011;1413;52.440;13.506;2022-11-20T01:49:20;16.73;;;6.93;;
2810;SDS011;1413;52.440;13.506;2022-11-20T01:51:49;17.60;;;7.60;;
2810;SDS011;1413;52.440;13.506;2022-11-20T01:54:18;18.67;;;8.02;;
2810;SDS011;1413;52.440;13.506;2022-11-20T01:56:48;19.95;;;8.13;;
2810;SDS011;1413;52.440;13.506;2022-11-20T01:59:16;16.05;;;7.63;;
2810;SDS011;1413;52.440;13.506;2022-11-20T02:01:46;16.85;;;7.40;;
2810;SDS011;1413;52.440;13.506;2022-11-20T02:04:14;16.27;;;7.28;;
2810;SDS011;1413;52.440;13.506;2022-11-20T02:06:43;14.70;;;7.00;;
2810;SDS011;1413;52.440;13.506;2022-11-20T02:09:11;17.02;;;7.50;;
2810;SDS011;1413;52.440;13.506;2022-11-20T02:11:39;17.80;;;7.28;;
2810;SDS011;1413;52.440;13.506;2022-11-20T02:14:07;15.98;;;7.20;;
2810;SDS011;1413;52.440;13.506;2022-11-20T02:16:34;17.70;;;8.55;;
2810;SDS011;1413;52.440;13.506;2022-11-20T02:19:07;17.52;;;7.25;;
2810;SDS011;1413;52.440;13.506;2022-11-20T02:21:36;20.38;;;9.27;;
2810;SDS011;1413;52.440;13.506;2022-11-20T02:24:09;15.30;;;7.10;;
2810;SDS011;1413;52.440;13.506;2022-11-20T02:26:44;15.00;;;6.82;;
2810;SDS011;1413;52.440;13.506;2022-11-20T02:29:13;14.48;;;6.68;;
2810;SDS011;1413;52.440;13.506;2022-11-20T02:31:42;11.57;;;4.72;;
2810;SDS011;1413;52.440;13.506;2022-11-20T02:34:10;16.10;;;7.00;;
2810;SDS011;1413;52.440;13.506;2022-11-20T02:36:38;15.38;;;7.18;;
2810;SDS011;1413;52.440;13.506;2022-11-20T02:39:06;16.08;;;7.93;;
2810;SDS011;1413;52.440;13.506;2022-11-20T02:41:36;12.02;;;6.10;;
2810;SDS011;1413;52.440;13.506;2022-11-20T02:44:04;16.42;;;7.70;;
2810;SDS011;1413;52.440;13.506;2022-11-20T02:46:31;16.17;;;7.28;;
2810;SDS011;1413;52.440;13.506;2022-11-20T02:49:00;15.57;;;7.32;;
2810;SDS011;1413;52.440;13.506;2022-11-20T02:51:27;16.35;;;6.88;;
2810;SDS011;1413;52.440;13.506;2022-11-20T02:53:55;15.57;;;6.95;;
2810;SDS011;1413;52.440;13.506;2022-11-20T02:56:22;14.63;;;6.82;;
2810;SDS011;1413;52.440;13.506;2022-11-20T02:58:51;16.77;;;7.22;;
2810;SDS011;1413;52.440;13.506;2022-11-20T03:01:19;15.68;;;7.28;;
2810;SDS011;1413;52.440;13.506;2022-11-20T03:03:46;13.80;;;6.47;;
2810;SDS011;1413;52.440;13.506;2022-11-20T03:06:15;15.23;;;6.53;;
2810;SDS011;1413;52.440;13.506;2022-11-20T03:08:43;17.95;;;7.82;;
2810;SDS011;1413;52.440;13.506;2022-11-20T03:11:10;16.75;;;7.65;;
2810;SDS011;1413;52.440;13.506;2022-11-20T03:13:38;18.65;;;7.53;;
2810;SDS011;1413;52.440;13.506;2022-11-20T03:16:08;15.15;;;6.93;;
2810;SDS011;1413;52.440;13.506;2022-11-20T03:18:36;15.90;;;7.07;;
2810;SDS011;1413;52.440;13.506;2022-11-20T03:21:04;19.42;;;7.60;;
2810;SDS011;1413;52.440;13.506;2022-11-20T03:23:33;18.17;;;7.78;;
2810;SDS011;1413;52.440;13.506;2022-11-20T03:26:07;15.75;;;6.97;;
2810;SDS011;1413;52.440;13.506;2022-11-20T03:28:35;17.85;;;6.90;;
2810;SDS011;1413;52.440;13.506;2022-11-20T03:31:06;14.43;;;7.53;;
2810;SDS011;1413;52.440;13.506;2022-11-20T03:33:35;17.85;;;7.15;;
2810;SDS011;1413;52.440;13.506;2022-11-20T03:36:03;17.77;;;7.72;;
2810;SDS011;1413;52.440;13.506;2022-11-20T03:38:31;17.20;;;7.70;;
2810;SDS011;1413;52.440;13.506;2022-11-20T03:40:59;16.08;;;7.60;;
2810;SDS011;1413;52.440;13.506;2022-11-20T03:43:27;18.52;;;7.85;;
2810;SDS011;1413;52.440;13.506;2022-11-20T03:45:55;14.82;;;7.63;;
2810;SDS011;1413;52.440;13.506;2022-11-20T03:48:22;16.98;;;7.97;;
2810;SDS011;1413;52.440;13.506;2022-11-20T03:50:51;20.40;;;8.63;;
2810;SDS011;1413;52.440;13.506;2022-11-20T03:53:19;17.73;;;7.68;;
2810;SDS011;1413;52.440;13.506;2022-11-20T03:55:50;15.55;;;7.10;;
2810;SDS011;1413;52.440;13.506;2022-11-20T03:58:17;16.60;;;7.65;;
2810;SDS011;1413;52.440;13.506;2022-11-20T04:00:45;18.42;;;7.90;;
2810;SDS011;1413;52.440;13.506;2022-11-20T04:03:12;16.17;;;7.88;;
2810;SDS011;1413;52.440;13.506;2022-11-20T04:05:40;14.43;;;7.25;;
2810;SDS011;1413;52.440;13.506;2022-11-20T04:08:09;17.35;;;7.80;;
2810;SDS011;1413;52.440;13.506;2022-11-20T04:10:36;17.05;;;8.25;;
2810;SDS011;1413;52.440;13.506;2022-11-20T04:13:04;19.27;;;8.60;;
2810;SDS011;1413;52.440;13.506;2022-11-20T04:15:31;19.30;;;8.32;;
2810;SDS011;1413;52.440;13.506;2022-11-20T04:18:03;16.67;;;7.57;;
2810;SDS011;1413;52.440;13.506;2022-11-20T04:20:31;20.38;;;8.63;;
2810;SDS011;1413;52.440;13.506;2022-11-20T04:22:58;17.63;;;8.45;;
2810;SDS011;1413;52.440;13.506;2022-11-20T04:25:27;17.75;;;8.00;;
2810;SDS011;1413;52.440;13.506;2022-11-20T04:27:55;18.20;;;7.75;;
2810;SDS011;1413;52.440;13.506;2022-11-20T04:30:22;16.35;;;7.60;;
2810;SDS011;1413;52.440;13.506;2022-11-20T04:32:50;17.52;;;7.65;;
2810;SDS011;1413;52.440;13.506;2022-11-20T04:35:17;16.55;;;8.13;;
2810;SDS011;1413;52.440;13.506;2022-11-20T04:37:44;20.67;;;8.85;;
2810;SDS011;1413;52.440;13.506;2022-11-20T04:40:12;16.20;;;6.80;;
2810;SDS011;1413;52.440;13.506;2022-11-20T04:42:41;16.98;;;7.28;;
2810;SDS011;1413;52.440;13.506;2022-11-20T04:45:08;18.50;;;8.50;;
2810;SDS011;1413;52.440;13.506;2022-11-20T04:47:36;17.38;;;7.78;;
2810;SDS011;1413;52.440;13.506;2022-11-20T04:50:04;17.80;;;7.40;;
2810;SDS011;1413;52.440;13.506;2022-11-20T04:52:31;16.60;;;7.63;;
2810;SDS011;1413;52.440;13.506;2022-11-20T04:54:59;16.52;;;7.35;;
2810;SDS011;1413;52.440;13.506;2022-11-20T04:57:26;16.60;;;7.05;;
2810;SDS011;1413;52.440;13.506;2022-11-20T04:59:55;18.55;;;8.38;;
2810;SDS011;1413;52.440;13.506;2022-11-20T05:02:23;19.65;;;7.55;;
2810;SDS011;1413;52.440;13.506;2022-11-20T05:04:51;17.85;;;7.90;;
2810;SDS011;1413;52.440;13.506;2022-11-20T05:07:18;18.52;;;8.85;;
2810;SDS011;1413;52.440;13.506;2022-11-20T05:09:46;14.60;;;7.47;;
2810;SDS011;1413;52.440;13.506;2022-11-20T05:12:13;15.75;;;7.30;;
2810;SDS011;1413;52.440;13.506;2022-11-20T05:14:40;17.75;;;7.38;;
2810;SDS011;1413;52.440;13.506;2022-11-20T05:17:11;16.90;;;7.90;;
2810;SDS011;1413;52.440;13.506;2022-11-20T05:19:38;13.38;;;6.85;;
2810;SDS011;1413;52.440;13.506;2022-11-20T05:22:06;14.00;;;7.43;;
2810;SDS011;1413;52.440;13.506;2022-11-20T05:24:33;18.70;;;8.00;;
2810;SDS011;1413;52.440;13.506;2022-11-20T05:27:01;17.75;;;8.25;;
2810;SDS011;1413;52.440;13.506;2022-11-20T05:29:28;19.00;;;7.97;;
2810;SDS011;1413;52.440;13.506;2022-11-20T05:31:56;17.17;;;7.05;;
2810;SDS011;1413;52.440;13.506;2022-11-20T05:34:25;16.98;;;8.20;;
2810;SDS011;1413;52.440;13.506;2022-11-20T05:36:52;16.13;;;7.50;;
2810;SDS011;1413;52.440;13.506;2022-11-20T05:39:19;18.83;;;7.82;;
2810;SDS011;1413;52.440;13.506;2022-11-20T05:41:47;18.45;;;8.02;;
2810;SDS011;1413;52.440;13.506;2022-11-20T05:44:35;14.73;;;6.90;;
2810;SDS011;1413;52.440;13.506;2022-11-20T05:47:03;16.83;;;7.68;;
2810;SDS011;1413;52.440;13.506;2022-11-20T05:49:32;17.80;;;7.97;;
2810;SDS011;1413;52.440;13.506;2022-11-20T05:51:59;17.45;;;7.50;;
2810;SDS011;1413;52.440;13.506;2022-11-20T05:54:27;18.30;;;7.78;;
2810;SDS011;1413;52.440;13.506;2022-11-20T05:56:54;15.82;;;7.32;;
2810;SDS011;1413;52.440;13.506;2022-11-20T05:59:22;17.85;;;7.68;;
2810;SDS011;1413;52.440;13.506;2022-11-20T06:01:49;17.05;;;8.20;;
2810;SDS011;1413;52.440;13.506;2022-11-20T06:04:17;16.35;;;7.75;;
2810;SDS011;1413;52.440;13.506;2022-11-20T06:06:46;17.73;;;7.60;;
2810;SDS011;1413;52.440;13.506;2022-11-20T06:09:13;16.27;;;7.70;;
2810;SDS011;1413;52.440;13.506;2022-11-20T06:11:41;17.30;;;7.70;;
2810;SDS011;1413;52.440;13.506;2022-11-20T06:14:08;18.75;;;9.15;;
2810;SDS011;1413;52.440;13.506;2022-11-20T06:16:36;16.33;;;7.97;;
2810;SDS011;1413;52.440;13.506;2022-11-20T06:19:03;17.20;;;8.02;;
2810;SDS011;1413;52.440;13.506;2022-11-20T06:21:31;19.38;;;8.73;;
2810;SDS011;1413;52.440;13.506;2022-11-20T06:23:59;19.13;;;8.50;;
2810;SDS011;1413;52.440;13.506;2022-11-20T06:26:29;12.95;;;6.72;;
2810;SDS011;1413;52.440;13.506;2022-11-20T06:28:57;18.38;;;7.55;;
2810;SDS011;1413;52.440;13.506;2022-11-20T06:31:25;15.90;;;7.60;;
2810;SDS011;1413;52.440;13.506;2022-11-20T06:33:52;18.63;;;7.32;;
2810;SDS011;1413;52.440;13.506;2022-11-20T06:36:21;15.50;;;6.93;;
2810;SDS011;1413;52.440;13.506;2022-11-20T06:38:48;15.18;;;7.55;;
2810;SDS011;1413;52.440;13.506;2022-11-20T06:41:18;16.65;;;7.65;;
2810;SDS011;1413;52.440;13.506;2022-11-20T06:43:46;13.65;;;6.75;;
2810;SDS011;1413;52.440;13.506;2022-11-20T06:46:14;17.75;;;7.60;;
2810;SDS011;1413;52.440;13.506;2022-11-20T06:48:43;17.73;;;7.45;;
2810;SDS011;1413;52.440;13.506;2022-11-20T06:51:11;19.02;;;7.55;;
2810;SDS011;1413;52.440;13.506;2022-11-20T06:53:39;14.57;;;6.53;;
2810;SDS011;1413;52.440;13.506;2022-11-20T06:56:06;16.63;;;7.28;;
2810;SDS011;1413;52.440;13.506;2022-11-20T06:58:36;16.33;;;7.60;;
2810;SDS011;1413;52.440;13.506;2022-11-20T07:01:04;18.23;;;7.22;;
2810;SDS011;1413;52.440;13.506;2022-11-20T07:03:32;15.13;;;7.00;;
2810;SDS011;1413;52.440;13.506;2022-11-20T07:06:00;17.35;;;7.60;;
2810;SDS011;1413;52.440;13.506;2022-11-20T07:08:27;18.40;;;7.40;;
2810;SDS011;1413;52.440;13.506;2022-11-20T07:10:57;15.98;;;7.63;;
2810;SDS011;1413;52.440;13.506;2022-11-20T07:13:26;16.73;;;6.93;;
2810;SDS011;1413;52.440;13.506;2022-11-20T07:15:55;17.67;;;7.10;;
2810;SDS011;1413;52.440;13.506;2022-11-20T07:18:22;16.52;;;7.55;;
2810;SDS011;1413;52.440;13.506;2022-11-20T07:20:50;16.17;;;7.32;;
2810;SDS011;1413;52.440;13.506;2022-11-20T07:23:17;13.68;;;6.65;;
2810;SDS011;1413;52.440;13.506;2022-11-20T07:25:44;17.60;;;7.32;;
2810;SDS011;1413;52.440;13.506;2022-11-20T07:28:12;19.60;;;8.55;;
2810;SDS011;1413;52.440;13.506;2022-11-20T07:30:40;13.60;;;5.68;;
2810;SDS011;1413;52.440;13.506;2022-11-20T07:33:08;17.85;;;7.40;;
2810;SDS011;1413;52.440;13.506;2022-11-20T07:35:36;16.23;;;8.15;;
2810;SDS011;1413;52.440;13.506;2022-11-20T07:38:03;14.40;;;7.20;;
2810;SDS011;1413;52.440;13.506;2022-11-20T07:40:31;15.10;;;7.63;;
2810;SDS011;1413;52.440;13.506;2022-11-20T07:42:58;17.02;;;7.85;;
2810;SDS011;1413;52.440;13.506;2022-11-20T07:45:26;16.33;;;8.25;;
2810;SDS011;1413;52.440;13.506;2022-11-20T07:47:53;17.25;;;7.60;;
2810;SDS011;1413;52.440;13.506;2022-11-20T07:50:22;16.85;;;8.25;;
2810;SDS011;1413;52.440;13.506;2022-11-20T07:52:50;15.85;;;7.80;;
2810;SDS011;1413;52.440;13.506;2022-11-20T07:55:18;20.27;;;8.63;;
2810;SDS011;1413;52.440;13.506;2022-11-20T07:57:45;19.35;;;8.38;;
2810;SDS011;1413;52.440;13.506;2022-11-20T08:00:13;17.75;;;8.25;;
2810;SDS011;1413;52.440;13.506;2022-11-20T08:02:41;18.40;;;8.25;;
2810;SDS011;1413;52.440;13.506;2022-11-20T08:05:09;18.00;;;8.02;;
2810;SDS011;1413;52.440;13.506;2022-11-20T08:07:38;19.75;;;8.80;;
2810;SDS011;1413;52.440;13.506;2022-11-20T08:10:07;17.60;;;8.30;;
2810;SDS011;1413;52.440;13.506;2022-11-20T08:12:35;22.60;;;8.85;;
2810;SDS011;1413;52.440;13.506;2022-11-20T08:15:20;19.27;;;7.90;;
2810;SDS011;1413;52.440;13.506;2022-11-20T08:17:47;20.80;;;9.00;;
2810;SDS011;1413;52.440;13.506;2022-11-20T08:20:35;19.63;;;8.07;;
2810;SDS011;1413;52.440;13.506;2022-11-20T08:23:04;20.60;;;8.98;;
2810;SDS011;1413;52.440;13.506;2022-11-20T08:25:32;18.33;;;8.82;;
2810;SDS011;1413;52.440;13.506;2022-11-20T08:28:00;19.25;;;8.68;;
2810;SDS011;1413;52.440;13.506;2022-11-20T08:30:45;21.27;;;9.05;;
2810;SDS011;1413;52.440;13.506;2022-11-20T08:33:12;20.83;;;8.35;;
2810;SDS011;1413;52.440;13.506;2022-11-20T08:35:40;20.17;;;9.02;;
2810;SDS011;1413;52.440;13.506;2022-11-20T08:38:10;16.40;;;7.90;;
2810;SDS011;1413;52.440;13.506;2022-11-20T08:40:37;17.85;;;9.35;;
2810;SDS011;1413;52.440;13.506;2022-11-20T08:43:05;16.77;;;7.90;;
2810;SDS011;1413;52.440;13.506;2022-11-20T08:45:32;19.13;;;8.60;;
2810;SDS011;1413;52.440;13.506;2022-11-20T08:48:01;18.00;;;8.00;;
2810;SDS011;1413;52.440;13.506;2022-11-20T08:50:29;18.67;;;8.30;;
2810;SDS011;1413;52.440;13.506;2022-11-20T08:53:01;18.80;;;8.05;;
2810;SDS011;1413;52.440;13.506;2022-11-20T08:55:30;14.20;;;7.47;;
2810;SDS011;1413;52.440;13.506;2022-11-20T08:57:58;16.83;;;7.93;;
2810;SDS011;1413;52.440;13.506;2022-11-20T09:00:25;18.27;;;7.88;;
2810;SDS011;1413;52.440;13.506;2022-11-20T09:02:53;16.60;;;7.95;;
2810;SDS011;1413;52.440;13.506;2022-11-20T09:05:21;14.98;;;7.70;;
2810;SDS011;1413;52.440;13.506;2022-11-20T09:07:48;17.38;;;7.38;;
2810;SDS011;1413;52.440;13.506;2022-11-20T09:10:16;15.77;;;7.72;;
2810;SDS011;1413;52.440;13.506;2022-11-20T09:12:52;13.65;;;6.45;;
2810;SDS011;1413;52.440;13.506;2022-11-20T09:15:21;17.90;;;7.32;;
2810;SDS011;1413;52.440;13.506;2022-11-20T09:17:51;15.30;;;6.68;;
2810;SDS011;1413;52.440;13.506;2022-11-20T09:20:19;17.02;;;7.32;;
2810;SDS011;1413;52.440;13.506;2022-11-20T09:22:47;16.02;;;7.50;;
2810;SDS011;1413;52.440;13.506;2022-11-20T09:25:14;15.73;;;7.63;;
2810;SDS011;1413;52.440;13.506;2022-11-20T09:27:42;12.55;;;5.85;;
2810;SDS011;1413;52.440;13.506;2022-11-20T09:32:42;15.38;;;7.60;;
2810;SDS011;1413;52.440;13.506;2022-11-20T09:35:09;16.52;;;7.80;;
2810;SDS011;1413;52.440;13.506;2022-11-20T09:37:37;17.25;;;8.23;;
2810;SDS011;1413;52.440;13.506;2022-11-20T09:40:05;11.43;;;6.25;;
2810;SDS011;1413;52.440;13.506;2022-11-20T09:42:35;14.40;;;7.25;;
2810;SDS011;1413;52.440;13.506;2022-11-20T09:45:18;15.13;;;7.28;;
2810;SDS011;1413;52.440;13.506;2022-11-20T09:50:33;16.02;;;7.72;;
2810;SDS011;1413;52.440;13.506;2022-11-20T09:53:11;17.77;;;7.25;;
2810;SDS011;1413;52.440;13.506;2022-11-20T09:55:39;17.08;;;7.50;;
2810;SDS011;1413;52.440;13.506;2022-11-20T09:58:07;19.63;;;9.07;;
2810;SDS011;1413;52.440;13.506;2022-11-20T10:00:34;16.10;;;7.88;;
2810;SDS011;1413;52.440;13.506;2022-11-20T10:03:03;17.45;;;7.85;;
2810;SDS011;1413;52.440;13.506;2022-11-20T10:05:35;16.92;;;8.35;;
2810;SDS011;1413;52.440;13.506;2022-11-20T10:08:08;16.27;;;8.40;;
2810;SDS011;1413;52.440;13.506;2022-11-20T10:10:41;15.45;;;7.65;;
2810;SDS011;1413;52.440;13.506;2022-11-20T10:13:18;17.27;;;7.95;;
2810;SDS011;1413;52.440;13.506;2022-11-20T10:15:52;16.75;;;8.25;;
2810;SDS011;1413;52.440;13.506;2022-11-20T10:18:26;17.17;;;7.90;;
2810;SDS011;1413;52.440;13.506;2022-11-20T10:21:01;18.65;;;8.32;;
2810;SDS011;1413;52.440;13.506;2022-11-20T10:23:34;12.38;;;6.47;;
2810;SDS011;1413;52.440;13.506;2022-11-20T10:26:13;18.30;;;8.20;;
2810;SDS011;1413;52.440;13.506;2022-11-20T10:28:46;20.58;;;7.70;;
2810;SDS011;1413;52.440;13.506;2022-11-20T10:31:26;15.75;;;7.85;;
2810;SDS011;1413;52.440;13.506;2022-11-20T10:33:54;18.13;;;9.23;;
2810;SDS011;1413;52.440;13.506;2022-11-20T10:36:40;18.35;;;8.25;;
2810;SDS011;1413;52.440;13.506;2022-11-20T10:39:12;15.30;;;8.23;;
2810;SDS011;1413;52.440;13.506;2022-11-20T10:41:43;16.33;;;8.82;;
2810;SDS011;1413;52.440;13.506;2022-11-20T10:44:15;21.05;;;8.95;;
2810;SDS011;1413;52.440;13.506;2022-11-20T10:47:03;13.13;;;5.22;;
2810;SDS011;1413;52.440;13.506;2022-11-20T10:52:55;19.05;;;7.65;;
2810;SDS011;1413;52.440;13.506;2022-11-20T10:55:28;18.20;;;8.13;;
2810;SDS011;1413;52.440;13.506;2022-11-20T10:58:00;14.48;;;6.85;;
2810;SDS011;1413;52.440;13.506;2022-11-20T11:00:30;14.43;;;6.80;;
2810;SDS011;1413;52.440;13.506;2022-11-20T11:02:58;19.25;;;9.05;;
2810;SDS011;1413;52.440;13.506;2022-11-20T11:05:33;18.83;;;7.97;;
2810;SDS011;1413;52.440;13.506;2022-11-20T11:08:04;18.58;;;9.63;;
2810;SDS011;1413;52.440;13.506;2022-11-20T11:10:36;16.55;;;8.25;;
2810;SDS011;1413;52.440;13.506;2022-11-20T11:13:05;19.40;;;9.10;;
2810;SDS011;1413;52.440;13.506;2022-11-20T11:15:37;18.58;;;9.43;;
2810;SDS011;1413;52.440;13.506;2022-11-20T11:18:05;20.58;;;10.30;;
2810;SDS011;1413;52.440;13.506;2022-11-20T11:20:35;19.98;;;9.48;;
2810;SDS011;1413;52.440;13.506;2022-11-20T11:23:05;16.92;;;8.05;;
2810;SDS011;1413;52.440;13.506;2022-11-20T11:25:38;20.00;;;10.60;;
2810;SDS011;1413;52.440;13.506;2022-11-20T11:28:19;19.73;;;9.30;;
2810;SDS011;1413;52.440;13.506;2022-11-20T11:30:47;19.83;;;10.30;;
2810;SDS011;1413;52.440;13.506;2022-11-20T11:33:18;26.58;;;11.00;;
2810;SDS011;1413;52.440;13.506;2022-11-20T11:35:46;30.63;;;14.00;;
2810;SDS011;1413;52.440;13.506;2022-11-20T11:38:19;22.35;;;10.13;;
2810;SDS011;1413;52.440;13.506;2022-11-20T11:40:48;34.40;;;14.15;;
2810;SDS011;1413;52.440;13.506;2022-11-20T11:43:17;30.40;;;12.48;;
2810;SDS011;1413;52.440;13.506;2022-11-20T11:46:03;26.10;;;12.02;;
2810;SDS011;1413;52.440;13.506;2022-11-20T11:48:32;20.05;;;9.38;;
2810;SDS011;1413;52.440;13.506;2022-11-20T11:51:00;22.52;;;9.40;;
2810;SDS011;1413;52.440;13.506;2022-11-20T11:53:29;22.73;;;9.68;;
2810;SDS011;1413;52.440;13.506;2022-11-20T11:55:58;19.88;;;8.75;;
2810;SDS011;1413;52.440;13.506;2022-11-20T11:58:40;17.63;;;8.13;;
2810;SDS011;1413;52.440;13.506;2022-11-20T12:01:12;19.75;;;9.05;;
2810;SDS011;1413;52.440;13.506;2022-11-20T12:03:44;19.52;;;8.07;;
2810;SDS011;1413;52.440;13.506;2022-11-20T12:06:16;16.10;;;8.05;;
2810;SDS011;1413;52.440;13.506;2022-11-20T12:08:47;18.25;;;8.10;;
2810;SDS011;1413;52.440;13.506;2022-11-20T12:11:18;19.02;;;8.80;;
2810;SDS011;1413;52.440;13.506;2022-11-20T12:13:48;18.05;;;8.57;;
2810;SDS011;1413;52.440;13.506;2022-11-20T12:16:18;17.50;;;7.55;;
2810;SDS011;1413;52.440;13.506;2022-11-20T12:18:48;17.35;;;8.27;;
2810;SDS011;1413;52.440;13.506;2022-11-20T12:21:20;15.30;;;7.53;;
2810;SDS011;1413;52.440;13.506;2022-11-20T12:23:53;17.48;;;7.80;;
2810;SDS011;1413;52.440;13.506;2022-11-20T12:26:31;16.48;;;8.00;;
2810;SDS011;1413;52.440;13.506;2022-11-20T12:29:02;16.95;;;7.60;;
2810;SDS011;1413;52.440;13.506;2022-11-20T12:34:06;18.60;;;8.32;;
2810;SDS011;1413;52.440;13.506;2022-11-20T12:36:38;18.80;;;7.65;;
2810;SDS011;1413;52.440;13.506;2022-11-20T12:39:14;16.48;;;7.25;;
2810;SDS011;1413;52.440;13.506;2022-11-20T12:41:50;14.90;;;7.05;;
2810;SDS011;1413;52.440;13.506;2022-11-20T12:44:40;14.07;;;6.80;;
2810;SDS011;1413;52.440;13.506;2022-11-20T12:47:28;15.55;;;7.43;;
2810;SDS011;1413;52.440;13.506;2022-11-20T12:50:00;15.48;;;7.22;;
2810;SDS011;1413;52.440;13.506;2022-11-20T12:52:37;18.27;;;7.85;;
2810;SDS011;1413;52.440;13.506;2022-11-20T12:55:25;14.32;;;6.53;;
2810;SDS011;1413;52.440;13.506;2022-11-20T12:57:57;8.90;;;4.55;;
2810;SDS011;1413;52.440;13.506;2022-11-20T13:00:25;15.40;;;6.88;;
2810;SDS011;1413;52.440;13.506;2022-11-20T13:05:55;12.50;;;5.75;;
2810;SDS011;1413;52.440;13.506;2022-11-20T13:08:27;10.52;;;4.57;;
2810;SDS011;1413;52.440;13.506;2022-11-20T13:10:58;12.23;;;5.15;;
2810;SDS011;1413;52.440;13.506;2022-11-20T13:13:29;9.90;;;4.10;;
2810;SDS011;1413;52.440;13.506;2022-11-20T13:15:59;10.07;;;4.90;;
2810;SDS011;1413;52.440;13.506;2022-11-20T13:18:28;10.25;;;4.85;;
2810;SDS011;1413;52.440;13.506;2022-11-20T13:21:01;9.90;;;4.63;;
2810;SDS011;1413;52.440;13.506;2022-11-20T13:23:29;10.35;;;4.20;;
2810;SDS011;1413;52.440;13.506;2022-11-20T13:26:04;9.68;;;4.53;;
2810;SDS011;1413;52.440;13.506;2022-11-20T13:28:31;10.80;;;5.00;;
2810;SDS011;1413;52.440;13.506;2022-11-20T13:30:59;8.93;;;4.03;;
2810;SDS011;1413;52.440;13.506;2022-11-20T13:33:30;11.30;;;4.85;;
2810;SDS011;1413;52.440;13.506;2022-11-20T13:35:59;8.27;;;3.97;;
2810;SDS011;1413;52.440;13.506;2022-11-20T13:38:26;9.75;;;4.13;;
2810;SDS011;1413;52.440;13.506;2022-11-20T13:40:59;12.45;;;4.65;;
2810;SDS011;1413;52.440;13.506;2022-11-20T13:43:49;8.45;;;3.53;;
2810;SDS011;1413;52.440;13.506;2022-11-20T13:46:17;8.02;;;3.70;;
2810;SDS011;1413;52.440;13.506;2022-11-20T13:48:51;8.70;;;3.83;;
2810;SDS011;1413;52.440;13.506;2022-11-20T13:51:26;7.00;;;3.08;;
2810;SDS011;1413;52.440;13.506;2022-11-20T13:54:10;10.70;;;4.07;;
2810;SDS011;1413;52.440;13.506;2022-11-20T13:56:45;7.13;;;3.30;;
2810;SDS011;1413;52.440;13.506;2022-11-20T13:59:20;10.65;;;4.75;;
2810;SDS011;1413;52.440;13.506;2022-11-20T14:01:51;8.48;;;3.70;;
2810;SDS011;1413;52.440;13.506;2022-11-20T14:04:23;12.02;;;4.18;;
2810;SDS011;1413;52.440;13.506;2022-11-20T14:06:53;9.05;;;4.75;;
2810;SDS011;1413;52.440;13.506;2022-11-20T14:09:25;10.63;;;4.45;;
2810;SDS011;1413;52.440;13.506;2022-11-20T14:11:53;10.57;;;4.95;;
2810;SDS011;1413;52.440;13.506;2022-11-20T14:14:23;11.80;;;5.28;;
2810;SDS011;1413;52.440;13.506;2022-11-20T14:16:51;11.70;;;4.47;;
2810;SDS011;1413;52.440;13.506;2022-11-20T14:19:26;12.15;;;5.25;;
2810;SDS011;1413;52.440;13.506;2022-11-20T14:22:06;11.60;;;5.00;;
2810;SDS011;1413;52.440;13.506;2022-11-20T14:24:34;11.57;;;5.75;;
2810;SDS011;1413;52.440;13.506;2022-11-20T14:27:01;10.73;;;5.00;;
2810;SDS011;1413;52.440;13.506;2022-11-20T14:29:33;7.60;;;3.83;;
2810;SDS011;1413;52.440;13.506;2022-11-20T14:32:01;12.57;;;5.70;;
2810;SDS011;1413;52.440;13.506;2022-11-20T14:34:30;10.88;;;3.75;;
2810;SDS011;1413;52.440;13.506;2022-11-20T14:36:58;11.68;;;4.97;;
2810;SDS011;1413;52.440;13.506;2022-11-20T14:39:28;10.20;;;4.40;;
2810;SDS011;1413;52.440;13.506;2022-11-20T14:41:57;11.20;;;4.93;;
2810;SDS011;1413;52.440;13.506;2022-11-20T14:44:25;11.38;;;4.93;;
2810;SDS011;1413;52.440;13.506;2022-11-20T14:46:55;11.07;;;4.85;;
2810;SDS011;1413;52.440;13.506;2022-11-20T14:49:22;12.85;;;5.13;;
2810;SDS011;1413;52.440;13.506;2022-11-20T14:51:58;7.32;;;3.65;;
2810;SDS011;1413;52.440;13.506;2022-11-20T14:54:25;10.45;;;4.28;;
2810;SDS011;1413;52.440;13.506;2022-11-20T14:56:54;12.13;;;4.22;;
2810;SDS011;1413;52.440;13.506;2022-11-20T14:59:22;11.68;;;4.60;;
2810;SDS011;1413;52.440;13.506;2022-11-20T15:01:55;14.15;;;4.60;;
2810;SDS011;1413;52.440;13.506;2022-11-20T15:04:24;8.90;;;3.50;;
2810;SDS011;1413;52.440;13.506;2022-11-20T15:06:53;10.82;;;5.35;;
2810;SDS011;1413;52.440;13.506;2022-11-20T15:09:21;11.32;;;5.43;;
2810;SDS011;1413;52.440;13.506;2022-11-20T15:11:52;13.98;;;5.53;;
2810;SDS011;1413;52.440;13.506;2022-11-20T15:14:21;16.02;;;4.85;;
2810;SDS011;1413;52.440;13.506;2022-11-20T15:16:49;13.30;;;5.60;;